sensor_id;sensor_type;location;lat;lon;timestamp;pressure;altitude;pressure_sealevel;temperature;humidity
59110;BME280;44895;47.438;18.978;2022-12-24T00:00:56;99490.84;;;3.82;100.00
59110;BME280;44895;47.438;18.978;2022-12-24T00:04:00;99499.16;;;3.75;100.00
59110;BME280;44895;47.438;18.978;2022-12-24T00:07:03;99498.09;;;3.77;100.00
59110;BME280;44895;47.438;18.978;2022-12-24T00:10:09;99483.59;;;3.78;100.00
59110;BME280;44895;47.438;18.978;2022-12-24T00:13:13;99487.38;;;3.87;100.00
59110;BME280;44895;47.438;18.978;2022-12-24T00:16:17;99492.75;;;3.92;100.00
59110;BME280;44895;47.438;18.978;2022-12-24T00:19:22;99486.81;;;3.85;100.00
59110;BME280;44895;47.438;18.978;2022-12-24T00:22:26;99469.28;;;3.62;100.00
59110;BME280;44895;47.438;18.978;2022-12-24T00:25:30;99455.38;;;3.80;100.00
59110;BME280;44895;47.438;18.978;2022-12-24T00:28:34;99469.34;;;3.82;100.00
59110;BME280;44895;47.438;18.978;2022-12-24T00:31:38;99487.34;;;3.77;100.00
59110;BME280;44895;47.438;18.978;2022-12-24T00:34:42;99487.66;;;3.90;100.00
59110;BME280;44895;47.438;18.978;2022-12-24T00:37:47;99485.78;;;3.96;100.00
59110;BME280;44895;47.438;18.978;2022-12-24T00:40:51;99502.44;;;3.93;100.00
59110;BME280;44895;47.438;18.978;2022-12-24T00:44:03;99518.84;;;3.91;100.00
59110;BME280;44895;47.438;18.978;2022-12-24T00:47:13;99553.75;;;3.91;100.00
59110;BME280;44895;47.438;18.978;2022-12-24T00:50:16;99541.91;;;3.87;100.00
59110;BME280;44895;47.438;18.978;2022-12-24T00:53:20;99539.31;;;4.08;100.00
59110;BME280;44895;47.438;18.978;2022-12-24T00:56:25;99536.53;;;3.92;100.00
59110;BME280;44895;47.438;18.978;2022-12-24T00:59:29;99517.22;;;3.90;100.00
59110;BME280;44895;47.438;18.978;2022-12-24T01:02:33;99513.13;;;3.78;100.00
59110;BME280;44895;47.438;18.978;2022-12-24T01:05:37;99506.09;;;3.66;100.00
59110;BME280;44895;47.438;18.978;2022-12-24T01:08:41;99490.63;;;3.89;100.00
59110;BME280;44895;47.438;18.978;2022-12-24T01:11:45;99493.56;;;3.98;100.00
59110;BME280;44895;47.438;18.978;2022-12-24T01:14:49;99478.22;;;3.78;100.00
59110;BME280;44895;47.438;18.978;2022-12-24T01:17:54;99451.56;;;3.66;100.00
59110;BME280;44895;47.438;18.978;2022-12-24T01:21:01;99450.25;;;3.73;100.00
59110;BME280;44895;47.438;18.978;2022-12-24T01:24:05;99446.50;;;3.74;100.00
59110;BME280;44895;47.438;18.978;2022-12-24T01:27:09;99449.78;;;4.02;100.00
59110;BME280;44895;47.438;18.978;2022-12-24T01:30:13;99443.38;;;4.14;100.00
59110;BME280;44895;47.438;18.978;2022-12-24T01:33:18;99448.19;;;4.12;100.00
59110;BME280;44895;47.438;18.978;2022-12-24T01:36:23;99448.72;;;4.03;100.00
59110;BME280;44895;47.438;18.978;2022-12-24T01:39:27;99457.88;;;4.07;100.00
59110;BME280;44895;47.438;18.978;2022-12-24T01:42:32;99447.09;;;3.92;100.00
59110;BME280;44895;47.438;18.978;2022-12-24T01:45:59;99437.66;;;3.84;100.00
59110;BME280;44895;47.438;18.978;2022-12-24T01:49:04;99451.66;;;3.91;100.00
59110;BME280;44895;47.438;18.978;2022-12-24T01:52:16;99446.28;;;3.91;100.00
59110;BME280;44895;47.438;18.978;2022-12-24T01:55:21;99447.88;;;3.92;100.00
59110;BME280;44895;47.438;18.978;2022-12-24T01:58:25;99451.13;;;4.05;100.00
59110;BME280;44895;47.438;18.978;2022-12-24T02:01:29;99458.91;;;3.91;100.00
59110;BME280;44895;47.438;18.978;2022-12-24T02:04:49;99453.81;;;4.00;100.00
59110;BME280;44895;47.438;18.978;2022-12-24T02:07:55;99450.63;;;4.08;100.00
59110;BME280;44895;47.438;18.978;2022-12-24T02:10:59;99442.56;;;4.13;100.00
59110;BME280;44895;47.438;18.978;2022-12-24T02:14:04;99450.63;;;4.08;100.00
59110;BME280;44895;47.438;18.978;2022-12-24T02:17:19;99458.41;;;4.10;100.00
59110;BME280;44895;47.438;18.978;2022-12-24T02:27:51;99526.19;;;4.22;100.00
59110;BME280;44895;47.438;18.978;2022-12-24T02:31:01;99485.34;;;4.35;100.00
59110;BME280;44895;47.438;18.978;2022-12-24T02:34:31;99471.09;;;4.35;100.00
59110;BME280;44895;47.438;18.978;2022-12-24T02:37:47;99457.63;;;4.14;100.00
59110;BME280;44895;47.438;18.978;2022-12-24T02:44:03;99468.41;;;4.35;100.00
59110;BME280;44895;47.438;18.978;2022-12-24T02:47:08;99456.31;;;4.32;100.00
59110;BME280;44895;47.438;18.978;2022-12-24T02:50:14;99452.53;;;4.33;100.00
59110;BME280;44895;47.438;18.978;2022-12-24T02:53:19;99452.50;;;4.23;100.00
59110;BME280;44895;47.438;18.978;2022-12-24T02:57:13;99449.03;;;4.28;100.00
59110;BME280;44895;47.438;18.978;2022-12-24T03:03:31;99462.16;;;4.08;100.00
59110;BME280;44895;47.438;18.978;2022-12-24T03:06:42;99472.38;;;4.12;100.00
59110;BME280;44895;47.438;18.978;2022-12-24T03:10:03;99482.06;;;4.13;100.00
59110;BME280;44895;47.438;18.978;2022-12-24T03:13:14;99475.63;;;4.24;100.00
59110;BME280;44895;47.438;18.978;2022-12-24T03:16:22;99481.31;;;4.38;100.00
59110;BME280;44895;47.438;18.978;2022-12-24T03:19:27;99482.38;;;4.42;100.00
59110;BME280;44895;47.438;18.978;2022-12-24T03:22:32;99486.16;;;4.31;100.00
59110;BME280;44895;47.438;18.978;2022-12-24T03:25:39;99474.56;;;4.35;100.00
59110;BME280;44895;47.438;18.978;2022-12-24T03:28:43;99461.88;;;4.00;100.00
59110;BME280;44895;47.438;18.978;2022-12-24T03:31:50;99470.75;;;4.00;100.00
59110;BME280;44895;47.438;18.978;2022-12-24T03:34:55;99452.19;;;3.99;100.00
59110;BME280;44895;47.438;18.978;2022-12-24T03:37:59;99451.69;;;4.12;100.00
59110;BME280;44895;47.438;18.978;2022-12-24T03:41:03;99459.50;;;4.19;100.00
59110;BME280;44895;47.438;18.978;2022-12-24T03:44:07;99474.00;;;4.07;100.00
59110;BME280;44895;47.438;18.978;2022-12-24T03:47:11;99479.44;;;4.33;100.00
59110;BME280;44895;47.438;18.978;2022-12-24T03:50:15;99481.59;;;4.52;100.00
59110;BME280;44895;47.438;18.978;2022-12-24T03:53:19;99492.91;;;4.59;100.00
59110;BME280;44895;47.438;18.978;2022-12-24T03:56:24;99493.44;;;4.66;100.00
59110;BME280;44895;47.438;18.978;2022-12-24T03:59:28;99490.75;;;4.71;100.00
59110;BME280;44895;47.438;18.978;2022-12-24T04:02:33;99492.63;;;4.71;100.00
59110;BME280;44895;47.438;18.978;2022-12-24T04:05:37;99499.06;;;4.70;100.00
59110;BME280;44895;47.438;18.978;2022-12-24T04:08:41;99496.13;;;4.66;100.00
59110;BME280;44895;47.438;18.978;2022-12-24T04:11:44;99509.31;;;4.63;100.00
59110;BME280;44895;47.438;18.978;2022-12-24T04:14:49;99498.00;;;4.66;100.00
59110;BME280;44895;47.438;18.978;2022-12-24T04:17:53;99510.38;;;4.67;100.00
59110;BME280;44895;47.438;18.978;2022-12-24T04:20:57;99505.28;;;4.70;100.00
59110;BME280;44895;47.438;18.978;2022-12-24T04:24:01;99517.66;;;4.66;100.00
59110;BME280;44895;47.438;18.978;2022-12-24T04:27:06;99518.44;;;4.72;100.00
59110;BME280;44895;47.438;18.978;2022-12-24T04:30:10;99517.09;;;4.74;100.00
59110;BME280;44895;47.438;18.978;2022-12-24T04:33:15;99516.84;;;4.71;100.00
59110;BME280;44895;47.438;18.978;2022-12-24T04:36:19;99511.44;;;4.71;100.00
59110;BME280;44895;47.438;18.978;2022-12-24T04:39:23;99507.41;;;4.73;100.00
59110;BME280;44895;47.438;18.978;2022-12-24T04:42:27;99499.34;;;4.79;100.00
59110;BME280;44895;47.438;18.978;2022-12-24T04:45:30;99505.00;;;4.82;100.00
59110;BME280;44895;47.438;18.978;2022-12-24T04:48:36;99505.56;;;4.79;100.00
59110;BME280;44895;47.438;18.978;2022-12-24T04:51:40;99502.59;;;4.76;100.00
59110;BME280;44895;47.438;18.978;2022-12-24T04:54:44;99502.03;;;4.73;100.00
59110;BME280;44895;47.438;18.978;2022-12-24T04:57:48;99503.94;;;4.78;100.00
59110;BME280;44895;47.438;18.978;2022-12-24T05:00:52;99507.41;;;4.84;100.00
59110;BME280;44895;47.438;18.978;2022-12-24T05:03:57;99519.53;;;4.97;100.00
59110;BME280;44895;47.438;18.978;2022-12-24T05:07:02;99511.72;;;4.90;100.00
59110;BME280;44895;47.438;18.978;2022-12-24T05:10:07;99516.31;;;4.84;100.00
59110;BME280;44895;47.438;18.978;2022-12-24T05:13:12;99524.91;;;4.81;100.00
59110;BME280;44895;47.438;18.978;2022-12-24T05:16:17;99525.47;;;4.83;100.00
59110;BME280;44895;47.438;18.978;2022-12-24T05:19:23;99528.16;;;4.88;100.00
59110;BME280;44895;47.438;18.978;2022-12-24T05:22:27;99536.50;;;4.92;100.00
59110;BME280;44895;47.438;18.978;2022-12-24T05:25:49;99527.88;;;4.85;100.00
59110;BME280;44895;47.438;18.978;2022-12-24T05:29:12;99525.44;;;4.68;100.00
59110;BME280;44895;47.438;18.978;2022-12-24T05:32:15;99537.28;;;4.82;100.00
59110;BME280;44895;47.438;18.978;2022-12-24T05:35:19;99539.47;;;4.80;100.00
59110;BME280;44895;47.438;18.978;2022-12-24T05:38:23;99547.53;;;4.85;100.00
59110;BME280;44895;47.438;18.978;2022-12-24T05:41:28;99548.59;;;5.00;100.00
59110;BME280;44895;47.438;18.978;2022-12-24T05:44:32;99549.16;;;5.07;100.00
59110;BME280;44895;47.438;18.978;2022-12-24T05:47:36;99555.06;;;4.94;100.00
59110;BME280;44895;47.438;18.978;2022-12-24T05:50:40;99548.06;;;4.82;100.00
59110;BME280;44895;47.438;18.978;2022-12-24T05:53:45;99536.22;;;4.78;100.00
59110;BME280;44895;47.438;18.978;2022-12-24T05:56:50;99544.56;;;4.87;100.00
59110;BME280;44895;47.438;18.978;2022-12-24T05:59:54;99545.63;;;4.76;100.00
59110;BME280;44895;47.438;18.978;2022-12-24T06:02:58;99547.50;;;4.70;100.00
59110;BME280;44895;47.438;18.978;2022-12-24T06:06:04;99549.88;;;4.35;100.00
59110;BME280;44895;47.438;18.978;2022-12-24T06:09:09;99550.41;;;4.27;100.00
59110;BME280;44895;47.438;18.978;2022-12-24T06:12:13;99545.03;;;4.27;100.00
59110;BME280;44895;47.438;18.978;2022-12-24T06:15:17;99557.44;;;4.49;100.00
59110;BME280;44895;47.438;18.978;2022-12-24T06:18:21;99556.88;;;4.47;100.00
59110;BME280;44895;47.438;18.978;2022-12-24T06:21:25;99564.03;;;4.10;100.00
59110;BME280;44895;47.438;18.978;2022-12-24T06:24:29;99554.97;;;4.37;100.00
59110;BME280;44895;47.438;18.978;2022-12-24T06:27:34;99566.81;;;4.36;100.00
59110;BME280;44895;47.438;18.978;2022-12-24T06:30:37;99575.06;;;4.14;100.00
59110;BME280;44895;47.438;18.978;2022-12-24T06:33:42;99570.03;;;4.43;100.00
59110;BME280;44895;47.438;18.978;2022-12-24T06:36:46;99572.97;;;4.31;100.00
59110;BME280;44895;47.438;18.978;2022-12-24T06:39:50;99590.69;;;4.22;100.00
59110;BME280;44895;47.438;18.978;2022-12-24T06:42:54;99593.63;;;4.20;100.00
59110;BME280;44895;47.438;18.978;2022-12-24T06:45:59;99592.31;;;4.28;100.00
59110;BME280;44895;47.438;18.978;2022-12-24T06:49:03;99587.81;;;4.44;100.00
59110;BME280;44895;47.438;18.978;2022-12-24T06:52:08;99605.31;;;4.52;100.00
59110;BME280;44895;47.438;18.978;2022-12-24T06:55:13;99604.50;;;4.51;100.00
59110;BME280;44895;47.438;18.978;2022-12-24T06:58:17;99613.06;;;4.38;100.00
59110;BME280;44895;47.438;18.978;2022-12-24T07:01:21;99613.88;;;4.38;100.00
59110;BME280;44895;47.438;18.978;2022-12-24T07:04:27;99607.16;;;4.41;100.00
59110;BME280;44895;47.438;18.978;2022-12-24T07:07:31;99614.50;;;4.61;100.00
59110;BME280;44895;47.438;18.978;2022-12-24T07:10:35;99613.00;;;4.22;100.00
59110;BME280;44895;47.438;18.978;2022-12-24T07:13:39;99618.94;;;4.24;100.00
59110;BME280;44895;47.438;18.978;2022-12-24T07:16:42;99613.63;;;4.45;100.00
59110;BME280;44895;47.438;18.978;2022-12-24T07:19:46;99610.97;;;4.55;100.00
59110;BME280;44895;47.438;18.978;2022-12-24T07:22:50;99619.75;;;4.30;100.00
59110;BME280;44895;47.438;18.978;2022-12-24T07:25:54;99622.50;;;4.46;100.00
59110;BME280;44895;47.438;18.978;2022-12-24T07:28:58;99621.66;;;4.35;100.00
59110;BME280;44895;47.438;18.978;2022-12-24T07:32:02;99624.63;;;4.38;100.00
59110;BME280;44895;47.438;18.978;2022-12-24T07:35:07;99623.31;;;4.46;100.00
59110;BME280;44895;47.438;18.978;2022-12-24T07:38:11;99620.66;;;4.51;100.00
59110;BME280;44895;47.438;18.978;2022-12-24T07:41:16;99637.28;;;4.43;100.00
59110;BME280;44895;47.438;18.978;2022-12-24T07:44:20;99640.06;;;4.69;100.00
59110;BME280;44895;47.438;18.978;2022-12-24T07:47:24;99647.09;;;4.85;100.00
59110;BME280;44895;47.438;18.978;2022-12-24T07:50:28;99655.22;;;5.27;100.00
59110;BME280;44895;47.438;18.978;2022-12-24T07:53:32;99652.25;;;5.54;100.00
59110;BME280;44895;47.438;18.978;2022-12-24T07:56:36;99653.59;;;5.57;100.00
59110;BME280;44895;47.438;18.978;2022-12-24T07:59:40;99654.13;;;5.74;100.00
59110;BME280;44895;47.438;18.978;2022-12-24T08:02:44;99651.16;;;5.76;100.00
59110;BME280;44895;47.438;18.978;2022-12-24T08:05:48;99657.88;;;5.78;100.00
59110;BME280;44895;47.438;18.978;2022-12-24T08:08:53;99676.44;;;5.90;100.00
59110;BME280;44895;47.438;18.978;2022-12-24T08:11:56;99680.16;;;6.35;100.00
59110;BME280;44895;47.438;18.978;2022-12-24T08:15:01;99685.00;;;6.39;100.00
59110;BME280;44895;47.438;18.978;2022-12-24T08:18:04;99691.66;;;6.62;100.00
59110;BME280;44895;47.438;18.978;2022-12-24T08:21:09;99700.50;;;6.78;100.00
59110;BME280;44895;47.438;18.978;2022-12-24T08:24:13;99707.41;;;6.99;100.00
59110;BME280;44895;47.438;18.978;2022-12-24T08:27:17;99725.75;;;7.02;100.00
59110;BME280;44895;47.438;18.978;2022-12-24T08:30:21;99730.06;;;7.04;100.00
59110;BME280;44895;47.438;18.978;2022-12-24T08:33:25;99738.19;;;6.98;100.00
59110;BME280;44895;47.438;18.978;2022-12-24T08:36:29;99743.13;;;6.81;100.00
59110;BME280;44895;47.438;18.978;2022-12-24T08:39:34;99747.97;;;6.79;100.00
59110;BME280;44895;47.438;18.978;2022-12-24T08:42:38;99750.16;;;6.77;100.00
59110;BME280;44895;47.438;18.978;2022-12-24T08:45:42;99746.41;;;6.73;100.00
59110;BME280;44895;47.438;18.978;2022-12-24T08:48:46;99758.56;;;6.65;100.00
59110;BME280;44895;47.438;18.978;2022-12-24T08:51:50;99764.53;;;6.62;100.00
59110;BME280;44895;47.438;18.978;2022-12-24T08:54:55;99766.91;;;6.68;100.00
59110;BME280;44895;47.438;18.978;2022-12-24T08:57:59;99776.38;;;6.66;100.00
59110;BME280;44895;47.438;18.978;2022-12-24T09:01:15;99774.13;;;6.94;100.00
59110;BME280;44895;47.438;18.978;2022-12-24T09:04:19;99778.94;;;7.02;100.00
59110;BME280;44895;47.438;18.978;2022-12-24T09:07:23;99774.31;;;7.08;100.00
59110;BME280;44895;47.438;18.978;2022-12-24T09:10:28;99779.19;;;7.11;100.00
59110;BME280;44895;47.438;18.978;2022-12-24T09:13:32;99779.44;;;7.14;100.00
59110;BME280;44895;47.438;18.978;2022-12-24T09:16:36;99785.78;;;7.39;100.00
59110;BME280;44895;47.438;18.978;2022-12-24T09:19:41;99788.25;;;7.30;100.00
59110;BME280;44895;47.438;18.978;2022-12-24T09:22:45;99787.47;;;7.25;100.00
59110;BME280;44895;47.438;18.978;2022-12-24T09:25:49;99789.41;;;7.14;100.00
59110;BME280;44895;47.438;18.978;2022-12-24T09:28:56;99797.19;;;7.26;100.00
59110;BME280;44895;47.438;18.978;2022-12-24T09:32:01;99795.53;;;7.35;100.00
59110;BME280;44895;47.438;18.978;2022-12-24T09:35:05;99795.81;;;7.73;100.00
59110;BME280;44895;47.438;18.978;2022-12-24T09:38:09;99785.81;;;7.74;100.00
59110;BME280;44895;47.438;18.978;2022-12-24T09:44:44;99796.84;;;8.12;100.00
59110;BME280;44895;47.438;18.978;2022-12-24T09:47:53;99803.63;;;8.09;100.00
59110;BME280;44895;47.438;18.978;2022-12-24T09:57:19;99790.69;;;8.36;100.00
59110;BME280;44895;47.438;18.978;2022-12-24T10:00:29;99804.31;;;8.25;100.00
59110;BME280;44895;47.438;18.978;2022-12-24T10:03:35;99802.50;;;8.50;100.00
59110;BME280;44895;47.438;18.978;2022-12-24T10:20:33;99826.66;;;8.95;100.00
59110;BME280;44895;47.438;18.978;2022-12-24T10:23:59;99823.13;;;9.19;100.00
59110;BME280;44895;47.438;18.978;2022-12-24T10:27:12;99821.50;;;9.18;100.00
59110;BME280;44895;47.438;18.978;2022-12-24T10:30:19;99817.03;;;9.27;100.00
59110;BME280;44895;47.438;18.978;2022-12-24T10:33:31;99825.63;;;9.34;100.00
59110;BME280;44895;47.438;18.978;2022-12-24T10:36:37;99830.03;;;9.30;100.00
59110;BME280;44895;47.438;18.978;2022-12-24T10:39:42;99828.06;;;9.11;100.00
59110;BME280;44895;47.438;18.978;2022-12-24T10:42:46;99828.19;;;9.25;100.00
59110;BME280;44895;47.438;18.978;2022-12-24T10:46:00;99844.06;;;9.32;100.00
59110;BME280;44895;47.438;18.978;2022-12-24T10:49:34;99833.03;;;9.48;100.00
59110;BME280;44895;47.438;18.978;2022-12-24T10:52:36;99833.69;;;9.77;100.00
59110;BME280;44895;47.438;18.978;2022-12-24T10:55:42;99835.66;;;9.91;100.00
59110;BME280;44895;47.438;18.978;2022-12-24T10:58:52;99828.78;;;9.79;100.00
59110;BME280;44895;47.438;18.978;2022-12-24T11:01:58;99826.88;;;9.80;100.00
59110;BME280;44895;47.438;18.978;2022-12-24T11:05:04;99827.88;;;10.03;100.00
59110;BME280;44895;47.438;18.978;2022-12-24T11:11:18;99834.59;;;10.25;100.00
59110;BME280;44895;47.438;18.978;2022-12-24T11:14:24;99838.63;;;10.27;100.00
59110;BME280;44895;47.438;18.978;2022-12-24T11:17:31;99857.19;;;10.20;100.00
59110;BME280;44895;47.438;18.978;2022-12-24T11:20:36;99854.16;;;10.22;100.00
59110;BME280;44895;47.438;18.978;2022-12-24T11:23:49;99860.88;;;10.43;100.00
59110;BME280;44895;47.438;18.978;2022-12-24T11:27:27;99857.63;;;10.60;100.00
59110;BME280;44895;47.438;18.978;2022-12-24T11:30:32;99850.69;;;10.35;100.00
59110;BME280;44895;47.438;18.978;2022-12-24T11:33:48;99864.38;;;10.63;100.00
59110;BME280;44895;47.438;18.978;2022-12-24T11:37:05;99862.03;;;10.56;100.00
59110;BME280;44895;47.438;18.978;2022-12-24T11:40:21;99860.66;;;10.59;100.00
59110;BME280;44895;47.438;18.978;2022-12-24T11:43:27;99865.03;;;10.55;100.00
59110;BME280;44895;47.438;18.978;2022-12-24T11:46:46;99870.38;;;10.60;100.00
59110;BME280;44895;47.438;18.978;2022-12-24T11:56:42;99880.41;;;10.46;100.00
59110;BME280;44895;47.438;18.978;2022-12-24T11:59:48;99883.56;;;10.53;100.00
59110;BME280;44895;47.438;18.978;2022-12-24T12:02:55;99869.47;;;10.51;100.00
59110;BME280;44895;47.438;18.978;2022-12-24T12:06:02;99881.47;;;10.64;100.00
59110;BME280;44895;47.438;18.978;2022-12-24T12:09:14;99898.34;;;10.60;100.00
59110;BME280;44895;47.438;18.978;2022-12-24T12:12:25;99900.06;;;10.56;100.00
59110;BME280;44895;47.438;18.978;2022-12-24T12:15:42;99893.50;;;10.57;100.00
59110;BME280;44895;47.438;18.978;2022-12-24T12:18:53;99889.25;;;10.51;100.00
59110;BME280;44895;47.438;18.978;2022-12-24T12:22:04;99893.59;;;10.52;100.00
59110;BME280;44895;47.438;18.978;2022-12-24T12:25:42;99898.06;;;10.62;100.00
59110;BME280;44895;47.438;18.978;2022-12-24T12:28:56;99903.75;;;10.47;100.00
59110;BME280;44895;47.438;18.978;2022-12-24T12:32:07;99905.25;;;10.39;100.00
59110;BME280;44895;47.438;18.978;2022-12-24T12:35:36;99909.53;;;10.40;100.00
59110;BME280;44895;47.438;18.978;2022-12-24T12:38:41;99918.13;;;10.47;100.00
59110;BME280;44895;47.438;18.978;2022-12-24T12:42:00;99920.69;;;10.38;100.00
59110;BME280;44895;47.438;18.978;2022-12-24T13:03:08;99939.13;;;10.41;100.00
59110;BME280;44895;47.438;18.978;2022-12-24T13:10:52;99935.69;;;10.36;100.00
59110;BME280;44895;47.438;18.978;2022-12-24T13:20:29;99945.66;;;10.21;100.00
59110;BME280;44895;47.438;18.978;2022-12-24T13:23:34;99943.66;;;10.27;100.00
59110;BME280;44895;47.438;18.978;2022-12-24T13:26:39;99950.94;;;10.12;100.00
59110;BME280;44895;47.438;18.978;2022-12-24T13:29:50;99952.53;;;9.94;100.00
59110;BME280;44895;47.438;18.978;2022-12-24T13:32:55;99952.53;;;9.94;100.00
59110;BME280;44895;47.438;18.978;2022-12-24T13:36:04;99966.59;;;9.96;100.00
59110;BME280;44895;47.438;18.978;2022-12-24T13:39:18;99958.69;;;10.19;100.00
59110;BME280;44895;47.438;18.978;2022-12-24T13:46:06;99970.16;;;10.16;100.00
59110;BME280;44895;47.438;18.978;2022-12-24T13:49:26;99966.91;;;10.14;100.00
59110;BME280;44895;47.438;18.978;2022-12-24T13:52:31;99970.44;;;10.15;100.00
59110;BME280;44895;47.438;18.978;2022-12-24T13:55:35;99963.47;;;10.27;100.00
59110;BME280;44895;47.438;18.978;2022-12-24T13:58:43;99973.16;;;10.15;100.00
59110;BME280;44895;47.438;18.978;2022-12-24T14:01:49;99973.66;;;9.98;100.00
59110;BME280;44895;47.438;18.978;2022-12-24T14:04:59;99984.13;;;10.04;100.00
59110;BME280;44895;47.438;18.978;2022-12-24T14:08:08;99990.78;;;9.93;100.00
59110;BME280;44895;47.438;18.978;2022-12-24T14:11:19;99987.66;;;9.86;100.00
59110;BME280;44895;47.438;18.978;2022-12-24T14:14:27;100005.56;;;9.87;100.00
59110;BME280;44895;47.438;18.978;2022-12-24T14:17:31;99996.28;;;9.88;100.00
59110;BME280;44895;47.438;18.978;2022-12-24T14:20:39;99993.03;;;9.67;100.00
59110;BME280;44895;47.438;18.978;2022-12-24T14:26:51;100017.66;;;9.46;100.00
59110;BME280;44895;47.438;18.978;2022-12-24T14:30:05;100006.63;;;9.37;100.00
59110;BME280;44895;47.438;18.978;2022-12-24T14:33:30;100016.53;;;9.23;100.00
59110;BME280;44895;47.438;18.978;2022-12-24T14:36:34;100028.72;;;9.25;100.00
59110;BME280;44895;47.438;18.978;2022-12-24T14:39:42;100041.31;;;9.40;100.00
59110;BME280;44895;47.438;18.978;2022-12-24T14:43:13;100054.09;;;9.35;100.00
59110;BME280;44895;47.438;18.978;2022-12-24T14:46:37;100047.19;;;9.18;100.00
59110;BME280;44895;47.438;18.978;2022-12-24T14:53:46;100058.47;;;9.01;100.00
59110;BME280;44895;47.438;18.978;2022-12-24T14:57:14;100079.16;;;8.87;100.00
59110;BME280;44895;47.438;18.978;2022-12-24T15:00:21;100073.59;;;8.73;100.00
59110;BME280;44895;47.438;18.978;2022-12-24T15:03:28;100074.88;;;8.80;100.00
59110;BME280;44895;47.438;18.978;2022-12-24T15:06:52;100081.38;;;8.79;100.00
59110;BME280;44895;47.438;18.978;2022-12-24T15:09:57;100075.31;;;8.93;100.00
59110;BME280;44895;47.438;18.978;2022-12-24T15:13:03;100082.81;;;8.67;100.00
59110;BME280;44895;47.438;18.978;2022-12-24T15:16:11;100076.19;;;8.88;100.00
59110;BME280;44895;47.438;18.978;2022-12-24T15:19:23;100064.84;;;8.81;100.00
59110;BME280;44895;47.438;18.978;2022-12-24T15:22:30;100090.69;;;8.63;100.00
59110;BME280;44895;47.438;18.978;2022-12-24T15:25:34;100095.88;;;8.54;100.00
59110;BME280;44895;47.438;18.978;2022-12-24T15:28:38;100104.03;;;8.49;100.00
59110;BME280;44895;47.438;18.978;2022-12-24T15:31:42;100096.19;;;8.53;100.00
59110;BME280;44895;47.438;18.978;2022-12-24T15:34:53;100098.34;;;8.45;100.00
59110;BME280;44895;47.438;18.978;2022-12-24T15:37:57;100104.94;;;8.24;100.00
59110;BME280;44895;47.438;18.978;2022-12-24T15:41:06;100114.63;;;8.35;100.00
59110;BME280;44895;47.438;18.978;2022-12-24T15:44:12;100124.44;;;8.15;100.00
59110;BME280;44895;47.438;18.978;2022-12-24T15:47:20;100113.84;;;8.29;100.00
59110;BME280;44895;47.438;18.978;2022-12-24T15:50:42;100111.97;;;8.25;100.00
59110;BME280;44895;47.438;18.978;2022-12-24T15:53:47;100111.50;;;8.07;100.00
59110;BME280;44895;47.438;18.978;2022-12-24T15:56:52;100119.84;;;8.21;100.00
59110;BME280;44895;47.438;18.978;2022-12-24T15:59:57;100121.91;;;8.45;100.00
59110;BME280;44895;47.438;18.978;2022-12-24T16:03:28;100108.19;;;8.21;100.00
59110;BME280;44895;47.438;18.978;2022-12-24T16:06:56;100117.97;;;8.11;100.00
59110;BME280;44895;47.438;18.978;2022-12-24T16:10:01;100132.56;;;8.15;100.00
59110;BME280;44895;47.438;18.978;2022-12-24T16:13:24;100131.25;;;8.03;100.00
59110;BME280;44895;47.438;18.978;2022-12-24T16:19:39;100126.50;;;7.43;100.00
59110;BME280;44895;47.438;18.978;2022-12-24T16:22:48;100138.38;;;7.37;100.00
59110;BME280;44895;47.438;18.978;2022-12-24T16:25:52;100143.78;;;7.26;100.00
59110;BME280;44895;47.438;18.978;2022-12-24T16:28:56;100151.34;;;7.29;100.00
59110;BME280;44895;47.438;18.978;2022-12-24T16:32:01;100147.28;;;7.42;100.00
59110;BME280;44895;47.438;18.978;2022-12-24T16:35:11;100152.44;;;7.49;100.00
59110;BME280;44895;47.438;18.978;2022-12-24T16:38:21;100138.66;;;7.40;100.00
59110;BME280;44895;47.438;18.978;2022-12-24T16:41:26;100133.78;;;7.27;100.00
59110;BME280;44895;47.438;18.978;2022-12-24T16:44:30;100146.22;;;7.33;100.00
59110;BME280;44895;47.438;18.978;2022-12-24T16:47:34;100148.41;;;7.36;100.00
59110;BME280;44895;47.438;18.978;2022-12-24T16:50:39;100154.88;;;7.40;100.00
59110;BME280;44895;47.438;18.978;2022-12-24T16:53:44;100158.94;;;7.43;100.00
59110;BME280;44895;47.438;18.978;2022-12-24T16:56:49;100152.97;;;7.41;100.00
59110;BME280;44895;47.438;18.978;2022-12-24T16:59:53;100166.47;;;7.56;100.00
59110;BME280;44895;47.438;18.978;2022-12-24T17:02:57;100174.59;;;7.66;100.00
59110;BME280;44895;47.438;18.978;2022-12-24T17:06:04;100186.78;;;7.59;100.00
59110;BME280;44895;47.438;18.978;2022-12-24T17:09:10;100190.53;;;7.73;100.00
59110;BME280;44895;47.438;18.978;2022-12-24T17:12:14;100194.88;;;7.64;100.00
59110;BME280;44895;47.438;18.978;2022-12-24T17:15:18;100174.84;;;7.65;100.00
59110;BME280;44895;47.438;18.978;2022-12-24T17:18:22;100183.78;;;7.60;100.00
59110;BME280;44895;47.438;18.978;2022-12-24T17:21:26;100172.69;;;7.62;100.00
59110;BME280;44895;47.438;18.978;2022-12-24T17:24:30;100188.38;;;7.60;100.00
59110;BME280;44895;47.438;18.978;2022-12-24T17:27:34;100185.94;;;7.63;100.00
59110;BME280;44895;47.438;18.978;2022-12-24T17:30:39;100178.13;;;7.51;100.00
59110;BME280;44895;47.438;18.978;2022-12-24T17:33:44;100187.31;;;7.40;100.00
59110;BME280;44895;47.438;18.978;2022-12-24T17:36:47;100192.16;;;7.23;100.00
59110;BME280;44895;47.438;18.978;2022-12-24T17:39:51;100201.31;;;7.16;100.00
59110;BME280;44895;47.438;18.978;2022-12-24T17:42:55;100206.72;;;7.11;100.00
59110;BME280;44895;47.438;18.978;2022-12-24T17:46:03;100210.22;;;7.12;100.00